createdAt,value
2018-03-21T00:00:13.066Z,5.1
2018-03-21T00:00:39.223Z,5.14
2018-03-21T00:01:05.364Z,5.08
2018-03-21T00:01:31.501Z,5.12
2018-03-21T00:01:57.636Z,5.11
2018-03-21T00:02:23.767Z,5.08
2018-03-21T00:02:49.902Z,5.08
2018-03-21T00:03:16.036Z,5.02
2018-03-21T00:03:42.176Z,5.08
2018-03-21T00:04:08.311Z,5.12
2018-03-21T00:04:34.447Z,5.05
2018-03-21T00:05:00.582Z,5
2018-03-21T00:05:26.727Z,5
2018-03-21T00:05:52.875Z,5.04
2018-03-21T00:06:19.030Z,4.97
2018-03-21T00:06:45.165Z,5.04
2018-03-21T00:07:11.302Z,5.07
2018-03-21T00:07:37.439Z,5.07
2018-03-21T00:08:03.569Z,5.02
2018-03-21T00:08:29.731Z,5.04
2018-03-21T00:08:55.864Z,5.02
2018-03-21T00:09:22.006Z,5.04
2018-03-21T00:09:48.136Z,4.9
2018-03-21T00:10:14.271Z,4.9
2018-03-21T00:10:40.411Z,4.92
2018-03-21T00:11:06.574Z,4.92
2018-03-21T00:11:32.706Z,5
2018-03-21T00:11:58.851Z,5.04
2018-03-21T00:12:25.025Z,5.05
2018-03-21T00:12:51.171Z,4.99
2018-03-21T00:13:17.296Z,4.99
2018-03-21T00:13:43.436Z,5.05
2018-03-21T00:14:09.594Z,5.07
2018-03-21T00:14:35.790Z,5
2018-03-21T00:15:01.926Z,4.9
2018-03-21T00:15:28.057Z,5
2018-03-21T00:15:54.195Z,4.89
2018-03-21T00:16:20.330Z,4.9
2018-03-21T00:16:46.467Z,4.9
2018-03-21T00:17:12.624Z,4.87
2018-03-21T00:17:38.784Z,4.92
2018-03-21T00:18:04.911Z,4.92
2018-03-21T00:18:31.074Z,4.89
2018-03-21T00:18:57.212Z,4.9
2018-03-21T00:19:23.352Z,4.89
2018-03-21T00:19:49.510Z,4.92
2018-03-21T00:20:15.647Z,4.93
2018-03-21T00:20:41.774Z,4.87
2018-03-21T00:21:07.911Z,4.94
2018-03-21T00:21:34.086Z,4.93
2018-03-21T00:22:00.180Z,4.92
2018-03-21T00:22:26.324Z,4.84
2018-03-21T00:22:52.458Z,4.86
2018-03-21T00:23:18.601Z,4.89
2018-03-21T00:23:44.737Z,4.78
2018-03-21T00:24:10.877Z,4.78
2018-03-21T00:24:37.010Z,4.8
2018-03-21T00:25:03.168Z,4.77
2018-03-21T00:25:29.363Z,4.8
2018-03-21T00:25:55.489Z,4.8
2018-03-21T00:26:21.631Z,4.82
2018-03-21T00:26:47.769Z,4.8
2018-03-21T00:27:13.947Z,4.82
2018-03-21T00:27:40.076Z,4.84
2018-03-21T00:28:06.226Z,4.8
2018-03-21T00:28:32.373Z,4.78
2018-03-21T00:28:58.513Z,4.82
2018-03-21T00:29:24.658Z,4.77
2018-03-21T00:29:50.858Z,4.84
2018-03-21T00:30:16.941Z,4.82
2018-03-21T00:30:43.081Z,4.75
2018-03-21T00:31:09.212Z,4.77
2018-03-21T00:31:35.353Z,4.78
2018-03-21T00:32:01.487Z,4.77
2018-03-21T00:32:27.627Z,4.75
2018-03-21T00:32:53.757Z,4.82
2018-03-21T00:33:19.895Z,4.84
2018-03-21T00:33:46.030Z,4.74
2018-03-21T00:34:12.167Z,4.78
2018-03-21T00:34:38.356Z,4.75
2018-03-21T00:35:04.491Z,4.84
2018-03-21T00:35:30.652Z,4.74
2018-03-21T00:35:56.786Z,4.73
2018-03-21T00:36:22.918Z,4.77
2018-03-21T00:36:49.076Z,4.74
2018-03-21T00:37:15.210Z,4.74
2018-03-21T00:37:41.350Z,4.67
2018-03-21T00:38:07.505Z,4.74
2018-03-21T00:38:33.643Z,4.73
2018-03-21T00:38:59.784Z,4.66
2018-03-21T00:39:25.916Z,4.73
2018-03-21T00:39:52.074Z,4.7
2018-03-21T00:40:18.206Z,4.67
2018-03-21T00:40:44.342Z,4.68
2018-03-21T00:41:10.481Z,4.7
2018-03-21T00:41:36.611Z,4.7
2018-03-21T00:42:02.752Z,4.67
2018-03-21T00:42:28.885Z,4.71
2018-03-21T00:42:55.021Z,4.68
2018-03-21T00:43:21.154Z,4.66
2018-03-21T00:43:47.291Z,4.73
2018-03-21T00:44:13.432Z,4.75
2018-03-21T00:44:39.565Z,4.73
2018-03-21T00:45:05.702Z,4.74
2018-03-21T00:45:31.855Z,4.74
2018-03-21T00:45:57.987Z,4.71
2018-03-21T00:46:24.124Z,4.7
2018-03-21T00:46:50.287Z,4.73
2018-03-21T00:47:16.442Z,4.77
2018-03-21T00:47:42.582Z,4.73
2018-03-21T00:48:08.709Z,4.78
2018-03-21T00:48:34.848Z,4.75
2018-03-21T00:49:00.986Z,4.68
2018-03-21T00:49:27.125Z,4.7
2018-03-21T00:49:53.258Z,4.68
2018-03-21T00:50:19.390Z,4.67
2018-03-21T00:50:45.531Z,4.73
2018-03-21T00:51:11.696Z,4.62
2018-03-21T00:51:37.837Z,4.63
2018-03-21T00:52:03.994Z,4.74
2018-03-21T00:52:30.110Z,4.67
2018-03-21T00:52:56.240Z,4.68
2018-03-21T00:53:22.377Z,4.67
2018-03-21T00:53:48.510Z,4.74
2018-03-21T00:54:14.650Z,4.67
2018-03-21T00:54:40.781Z,4.71
2018-03-21T00:55:06.918Z,4.63
2018-03-21T00:55:33.076Z,4.74
2018-03-21T00:55:59.212Z,4.67
2018-03-21T00:56:25.352Z,4.75
2018-03-21T00:56:51.485Z,4.78
2018-03-21T00:57:17.619Z,4.77
2018-03-21T00:57:43.759Z,4.78
2018-03-21T00:58:09.902Z,4.73
2018-03-21T00:58:36.029Z,4.67
2018-03-21T00:59:02.170Z,4.74
2018-03-21T00:59:28.296Z,4.63
2018-03-21T00:59:54.437Z,4.73
2018-03-21T01:00:20.570Z,4.74
2018-03-21T01:00:46.701Z,4.73
2018-03-21T01:01:12.840Z,4.73
2018-03-21T01:01:38.974Z,4.7
2018-03-21T01:02:05.109Z,4.73
2018-03-21T01:02:31.248Z,4.77
2018-03-21T01:02:57.410Z,4.75
2018-03-21T01:03:23.539Z,4.77
2018-03-21T01:03:49.678Z,4.68
2018-03-21T01:04:15.828Z,4.74
2018-03-21T01:04:41.968Z,4.73
2018-03-21T01:05:08.110Z,4.66
2018-03-21T01:05:34.267Z,4.71
2018-03-21T01:06:00.401Z,4.67
2018-03-21T01:06:26.564Z,4.66
2018-03-21T01:06:52.700Z,4.7
2018-03-21T01:07:18.833Z,4.68
2018-03-21T01:07:44.984Z,4.7
2018-03-21T01:08:11.122Z,4.7
2018-03-21T01:08:37.260Z,4.66
2018-03-21T01:09:03.399Z,4.63
2018-03-21T01:09:29.536Z,4.67
2018-03-21T01:09:55.664Z,4.71
2018-03-21T01:10:21.796Z,4.7
2018-03-21T01:10:47.933Z,4.59
2018-03-21T01:11:14.070Z,4.59
2018-03-21T01:11:40.202Z,4.62
2018-03-21T01:12:06.340Z,4.66
2018-03-21T01:12:32.472Z,4.66
2018-03-21T01:12:58.604Z,4.58
2018-03-21T01:13:24.748Z,4.62
2018-03-21T01:13:50.877Z,4.62
2018-03-21T01:14:17.015Z,4.67
2018-03-21T01:14:43.150Z,4.71
2018-03-21T01:15:09.287Z,4.68
2018-03-21T01:15:35.414Z,4.7
2018-03-21T01:16:01.552Z,4.6
2018-03-21T01:16:27.689Z,4.67
2018-03-21T01:16:53.814Z,4.68
2018-03-21T01:17:19.974Z,4.68
2018-03-21T01:17:46.110Z,4.62
2018-03-21T01:18:12.250Z,4.63
2018-03-21T01:18:38.378Z,4.63
2018-03-21T01:19:04.518Z,4.67
2018-03-21T01:19:30.647Z,4.7
2018-03-21T01:19:56.787Z,4.7
2018-03-21T01:20:22.919Z,4.67
2018-03-21T01:20:49.055Z,4.7
2018-03-21T01:21:15.190Z,4.68
2018-03-21T01:21:41.344Z,4.7
2018-03-21T01:22:07.491Z,4.66
2018-03-21T01:22:33.625Z,4.75
2018-03-21T01:22:59.758Z,4.68
2018-03-21T01:23:25.913Z,4.7
2018-03-21T01:23:52.055Z,4.71
2018-03-21T01:24:18.190Z,4.74
2018-03-21T01:24:44.327Z,4.73
2018-03-21T01:25:10.460Z,4.67
2018-03-21T01:25:36.602Z,4.73
2018-03-21T01:26:02.753Z,4.66
2018-03-21T01:26:28.888Z,4.62
2018-03-21T01:26:55.080Z,4.59
2018-03-21T01:27:21.217Z,4.67
2018-03-21T01:27:47.355Z,4.62
2018-03-21T01:28:13.518Z,4.7
2018-03-21T01:28:39.648Z,4.67
2018-03-21T01:29:05.788Z,4.63
2018-03-21T01:29:31.919Z,4.71
2018-03-21T01:29:58.053Z,4.66
2018-03-21T01:30:24.189Z,4.59
2018-03-21T01:30:50.331Z,4.63
2018-03-21T01:31:16.462Z,4.7
2018-03-21T01:31:42.597Z,4.59
2018-03-21T01:32:08.741Z,4.62
2018-03-21T01:32:34.874Z,4.58
2018-03-21T01:33:01.034Z,4.59
2018-03-21T01:33:27.189Z,4.53
2018-03-21T01:33:53.328Z,4.67
2018-03-21T01:34:19.467Z,4.63
2018-03-21T01:34:45.601Z,4.63
2018-03-21T01:35:11.736Z,4.68
2018-03-21T01:35:37.892Z,4.66
2018-03-21T01:36:04.028Z,4.59
2018-03-21T01:36:30.187Z,4.63
2018-03-21T01:36:56.319Z,4.66
2018-03-21T01:37:22.453Z,4.62
2018-03-21T01:37:48.594Z,4.6
2018-03-21T01:38:14.724Z,4.59
2018-03-21T01:38:40.862Z,4.62
2018-03-21T01:39:07.014Z,4.6
2018-03-21T01:39:33.148Z,4.63
2018-03-21T01:39:59.286Z,4.56
2018-03-21T01:40:25.418Z,4.56
2018-03-21T01:40:51.601Z,4.53
2018-03-21T01:41:17.742Z,4.59
2018-03-21T01:41:43.900Z,4.53
2018-03-21T01:42:10.032Z,4.53
2018-03-21T01:42:36.166Z,4.56
2018-03-21T01:43:02.301Z,4.58
2018-03-21T01:43:28.439Z,4.67
2018-03-21T01:43:54.597Z,4.6
2018-03-21T01:44:20.741Z,4.58
2018-03-21T01:44:46.914Z,4.59
2018-03-21T01:45:13.043Z,4.62
2018-03-21T01:45:39.204Z,4.59
2018-03-21T01:46:05.342Z,4.58
2018-03-21T01:46:31.475Z,4.55
2018-03-21T01:46:57.608Z,4.58
2018-03-21T01:47:23.741Z,4.59
2018-03-21T01:48:16.037Z,4.49
2018-03-21T01:48:42.170Z,4.49
2018-03-21T01:49:08.306Z,4.55
2018-03-21T01:49:34.442Z,4.56
2018-03-21T01:50:00.598Z,4.56
2018-03-21T01:50:26.739Z,4.56
2018-03-21T01:50:52.871Z,4.6
2018-03-21T01:51:19.007Z,4.6
2018-03-21T01:51:45.141Z,4.58
2018-03-21T01:52:11.279Z,4.56
2018-03-21T01:52:37.432Z,4.63
2018-03-21T01:53:03.570Z,4.6
2018-03-21T01:53:29.706Z,4.53
2018-03-21T01:53:55.841Z,4.56
2018-03-21T01:54:22.000Z,4.58
2018-03-21T01:54:48.166Z,4.56
2018-03-21T01:55:14.304Z,4.59
2018-03-21T01:55:40.440Z,4.59
2018-03-21T01:56:06.578Z,4.68
2018-03-21T01:56:32.710Z,4.59
2018-03-21T01:56:58.845Z,4.59
2018-03-21T01:57:24.980Z,4.6
2018-03-21T01:57:51.146Z,4.6
2018-03-21T01:58:17.274Z,4.59
2018-03-21T01:58:43.404Z,4.6
2018-03-21T01:59:09.531Z,4.53
2018-03-21T01:59:35.667Z,4.6
2018-03-21T02:00:01.822Z,4.49
2018-03-21T02:00:27.954Z,4.63
2018-03-21T02:00:54.085Z,4.55
2018-03-21T02:01:20.249Z,4.53
2018-03-21T02:01:46.383Z,4.59
2018-03-21T02:02:12.523Z,4.62
2018-03-21T02:02:38.685Z,4.59
2018-03-21T02:03:04.869Z,4.6
2018-03-21T02:03:31.032Z,4.59
2018-03-21T02:03:57.167Z,4.58
2018-03-21T02:04:23.299Z,4.58
2018-03-21T02:04:49.433Z,4.58
2018-03-21T02:05:15.564Z,4.48
2018-03-21T02:05:41.699Z,4.48
2018-03-21T02:06:07.834Z,4.48
2018-03-21T02:06:33.969Z,4.52
2018-03-21T02:07:00.110Z,4.52
2018-03-21T02:07:26.265Z,4.49
2018-03-21T02:07:52.402Z,4.5
2018-03-21T02:08:18.558Z,4.5
2018-03-21T02:08:44.695Z,4.49
2018-03-21T02:09:10.832Z,4.48
2018-03-21T02:09:36.961Z,4.45
2018-03-21T02:10:03.090Z,4.49
2018-03-21T02:10:29.242Z,4.5
2018-03-21T02:10:55.380Z,4.37
2018-03-21T02:11:21.524Z,4.5
2018-03-21T02:11:47.685Z,4.48
2018-03-21T02:12:13.819Z,4.42
2018-03-21T02:12:39.956Z,4.49
2018-03-21T02:13:06.088Z,4.38
2018-03-21T02:13:32.219Z,4.45
2018-03-21T02:13:58.351Z,4.5
2018-03-21T02:14:24.484Z,4.45
2018-03-21T02:14:50.622Z,4.34
2018-03-21T02:15:16.759Z,4.42
2018-03-21T02:15:42.892Z,4.53
2018-03-21T02:16:09.024Z,4.44
2018-03-21T02:16:35.159Z,4.48
2018-03-21T02:17:01.291Z,4.52
2018-03-21T02:17:27.435Z,4.41
2018-03-21T02:17:53.570Z,4.45
2018-03-21T02:18:19.703Z,4.41
2018-03-21T02:18:45.831Z,4.48
2018-03-21T02:19:11.978Z,4.44
2018-03-21T02:19:38.104Z,4.45
2018-03-21T02:20:04.243Z,4.37
2018-03-21T02:20:30.373Z,4.4
2018-03-21T02:20:56.507Z,4.44
2018-03-21T02:21:22.648Z,4.34
2018-03-21T02:21:48.831Z,4.38
2018-03-21T02:22:14.955Z,4.32
2018-03-21T02:22:41.115Z,4.34
2018-03-21T02:23:07.246Z,4.37
2018-03-21T02:23:33.396Z,4.37
2018-03-21T02:23:59.534Z,4.38
2018-03-21T02:24:25.678Z,4.38
2018-03-21T02:24:51.804Z,4.32
2018-03-21T02:25:17.948Z,4.37
2018-03-21T02:25:44.088Z,4.37
2018-03-21T02:26:10.219Z,4.38
2018-03-21T02:26:36.359Z,4.32
2018-03-21T02:27:02.492Z,4.35
2018-03-21T02:27:28.629Z,4.31
2018-03-21T02:27:54.769Z,4.24
2018-03-21T02:28:20.904Z,4.38
2018-03-21T02:28:47.033Z,4.35
2018-03-21T02:29:13.167Z,4.23
2018-03-21T02:29:39.326Z,4.23
2018-03-21T02:30:05.460Z,4.34
2018-03-21T02:30:31.601Z,4.32
2018-03-21T02:30:57.782Z,4.28
2018-03-21T02:31:23.922Z,4.34
2018-03-21T02:31:50.056Z,4.34
2018-03-21T02:32:16.234Z,4.23
2018-03-21T02:32:42.372Z,4.24
2018-03-21T02:33:08.506Z,4.26
2018-03-21T02:33:34.644Z,4.3
2018-03-21T02:34:00.830Z,4.35
2018-03-21T02:34:26.966Z,4.26
2018-03-21T02:34:53.124Z,4.2
2018-03-21T02:35:19.260Z,4.3
2018-03-21T02:35:45.396Z,4.28
2018-03-21T02:36:11.525Z,4.3
2018-03-21T02:36:37.660Z,4.3
2018-03-21T02:37:03.796Z,4.28
2018-03-21T02:37:29.942Z,4.35
2018-03-21T02:37:56.074Z,4.28
2018-03-21T02:38:22.208Z,4.17
2018-03-21T02:38:48.346Z,4.16
2018-03-21T02:39:14.478Z,4.19
2018-03-21T02:39:40.617Z,4.19
2018-03-21T02:40:06.750Z,4.13
2018-03-21T02:40:32.889Z,4.17
2018-03-21T02:40:59.025Z,4.16
2018-03-21T02:41:25.156Z,4.1
2018-03-21T02:41:51.292Z,4.13
2018-03-21T02:42:17.429Z,4.16
2018-03-21T02:42:43.553Z,4.19
2018-03-21T02:43:09.695Z,4.16
2018-03-21T02:43:35.826Z,4.14
2018-03-21T02:44:01.982Z,4.16
2018-03-21T02:44:28.127Z,4.08
2018-03-21T02:44:54.259Z,4.12
2018-03-21T02:45:20.400Z,4.16
2018-03-21T02:45:46.536Z,4.17
2018-03-21T02:46:12.670Z,4.16
2018-03-21T02:46:38.829Z,4.13
2018-03-21T02:47:04.963Z,4.16
2018-03-21T02:47:31.122Z,4.17
2018-03-21T02:47:57.262Z,4.17
2018-03-21T02:48:23.395Z,4.24
2018-03-21T02:48:49.553Z,4.2
2018-03-21T02:49:15.686Z,4.19
2018-03-21T02:49:41.820Z,4.2
2018-03-21T02:50:07.957Z,4.22
2018-03-21T02:50:34.113Z,4.16
2018-03-21T02:51:00.245Z,4.16
2018-03-21T02:51:26.377Z,4.1
2018-03-21T02:51:52.514Z,4.14
2018-03-21T02:52:18.653Z,4.16
2018-03-21T02:52:44.788Z,4.13
2018-03-21T02:53:10.921Z,4.17
2018-03-21T02:53:37.054Z,4.13
2018-03-21T02:54:03.222Z,4.13
2018-03-21T02:54:29.333Z,4.16
2018-03-21T02:54:55.487Z,4.19
2018-03-21T02:55:21.622Z,4.16
2018-03-21T02:55:47.760Z,4.14
2018-03-21T02:56:13.898Z,4.16
2018-03-21T02:56:40.050Z,4.22
2018-03-21T02:57:06.184Z,4.17
2018-03-21T02:57:32.316Z,4.16
2018-03-21T02:57:58.454Z,4.13
2018-03-21T02:58:24.591Z,4.16
2018-03-21T02:58:50.723Z,4.1
2018-03-21T02:59:16.852Z,4.16
2018-03-21T02:59:42.988Z,4.1
2018-03-21T03:00:09.135Z,4.16
2018-03-21T03:00:35.260Z,4.1
2018-03-21T03:01:01.421Z,4.1
2018-03-21T03:01:27.552Z,4.16
2018-03-21T03:01:53.683Z,4.17
2018-03-21T03:02:19.826Z,4.16
2018-03-21T03:02:45.955Z,4.14
2018-03-21T03:03:12.131Z,4.14
2018-03-21T03:03:38.260Z,4.2
2018-03-21T03:04:04.392Z,4.16
2018-03-21T03:04:30.535Z,4.14
2018-03-21T03:04:56.683Z,4.13
2018-03-21T03:05:22.809Z,4.16
2018-03-21T03:05:48.948Z,4.13
2018-03-21T03:06:15.093Z,4.06
2018-03-21T03:06:41.226Z,4.16
2018-03-21T03:07:07.360Z,4.17
2018-03-21T03:07:33.544Z,4.13
2018-03-21T03:07:59.678Z,4.08
2018-03-21T03:08:25.830Z,4.14
2018-03-21T03:08:51.963Z,4.06
2018-03-21T03:09:18.104Z,4.1
2018-03-21T03:09:44.251Z,4.06
2018-03-21T03:10:10.407Z,4.06
2018-03-21T03:10:36.546Z,4.13
2018-03-21T03:11:02.681Z,4.1
2018-03-21T03:11:28.840Z,4.06
2018-03-21T03:11:54.968Z,4.12
2018-03-21T03:12:21.108Z,4.1
2018-03-21T03:12:47.244Z,4.08
2018-03-21T03:13:13.378Z,4.12
2018-03-21T03:13:39.513Z,4.12
2018-03-21T03:14:05.671Z,4.08
2018-03-21T03:14:31.807Z,4.08
2018-03-21T03:14:57.945Z,4.06
2018-03-21T03:15:24.077Z,4.02
2018-03-21T03:15:50.217Z,4.06
2018-03-21T03:16:16.348Z,4.04
2018-03-21T03:16:42.489Z,4.04
2018-03-21T03:17:08.625Z,3.99
2018-03-21T03:17:34.782Z,4.08
2018-03-21T03:18:00.918Z,4.02
2018-03-21T03:18:27.051Z,4.04
2018-03-21T03:18:53.188Z,4.05
2018-03-21T03:19:19.327Z,4.02
2018-03-21T03:19:45.458Z,4.08
2018-03-21T03:20:11.593Z,4.06
2018-03-21T03:20:37.727Z,3.95
2018-03-21T03:21:03.860Z,3.94
2018-03-21T03:21:29.996Z,3.99
2018-03-21T03:21:56.160Z,3.95
2018-03-21T03:22:22.297Z,4.01
2018-03-21T03:22:48.433Z,3.96
2018-03-21T03:23:14.566Z,4.04
2018-03-21T03:23:40.704Z,3.98
2018-03-21T03:24:06.831Z,3.99
2018-03-21T03:24:32.972Z,4.04
2018-03-21T03:24:59.104Z,3.99
2018-03-21T03:25:25.238Z,3.95
2018-03-21T03:25:51.403Z,3.95
2018-03-21T03:26:17.536Z,3.92
2018-03-21T03:26:43.674Z,3.94
2018-03-21T03:27:09.804Z,3.94
2018-03-21T03:27:35.942Z,3.91
2018-03-21T03:28:02.082Z,3.88
2018-03-21T03:28:28.212Z,4.01
2018-03-21T03:28:54.343Z,3.95
2018-03-21T03:29:20.482Z,3.96
2018-03-21T03:29:46.642Z,3.99
2018-03-21T03:30:12.780Z,3.92
2018-03-21T03:30:38.909Z,4.04
2018-03-21T03:31:05.075Z,4.04
2018-03-21T03:31:31.205Z,3.99
2018-03-21T03:31:57.340Z,3.94
2018-03-21T03:32:23.478Z,3.95
2018-03-21T03:32:49.613Z,3.99
2018-03-21T03:33:15.802Z,3.98
2018-03-21T03:33:41.884Z,3.94
2018-03-21T03:34:08.024Z,3.98
2018-03-21T03:34:34.163Z,3.98
2018-03-21T03:35:00.316Z,3.95
2018-03-21T03:35:26.455Z,3.96
2018-03-21T03:35:52.616Z,3.98
2018-03-21T03:36:18.744Z,3.99
2018-03-21T03:36:44.875Z,4.01
2018-03-21T03:37:11.010Z,3.96
2018-03-21T03:37:37.147Z,3.99
2018-03-21T03:38:03.282Z,3.98
2018-03-21T03:38:29.414Z,3.95
2018-03-21T03:38:55.555Z,3.99
2018-03-21T03:39:21.686Z,3.99
2018-03-21T03:39:47.841Z,3.94
2018-03-21T03:40:13.977Z,3.96
2018-03-21T03:40:40.112Z,3.91
2018-03-21T03:41:06.239Z,3.95
2018-03-21T03:41:32.374Z,3.91
2018-03-21T03:41:58.533Z,3.95
2018-03-21T03:42:24.665Z,3.99
2018-03-21T03:42:50.798Z,3.98
2018-03-21T03:43:16.938Z,4.01
2018-03-21T03:43:43.075Z,4.05
2018-03-21T03:44:09.209Z,4.01
2018-03-21T03:44:35.351Z,3.95
2018-03-21T03:45:01.483Z,3.99
2018-03-21T03:45:27.621Z,3.99
2018-03-21T03:45:53.753Z,3.92
2018-03-21T03:46:19.887Z,3.98
2018-03-21T03:46:46.019Z,3.99
2018-03-21T03:47:12.173Z,4.01
2018-03-21T03:47:38.308Z,3.98
2018-03-21T03:48:04.436Z,4.01
2018-03-21T03:48:30.572Z,3.99
2018-03-21T03:48:56.718Z,3.99
2018-03-21T03:49:22.861Z,3.88
2018-03-21T03:49:48.992Z,3.96
2018-03-21T03:50:15.119Z,3.96
2018-03-21T03:50:41.256Z,3.99
2018-03-21T03:51:07.390Z,4.01
2018-03-21T03:51:33.520Z,3.99
2018-03-21T03:51:59.688Z,3.96
2018-03-21T03:52:25.825Z,3.96
2018-03-21T03:52:51.964Z,3.98
2018-03-21T03:53:18.101Z,4.01
2018-03-21T03:53:44.237Z,3.99
2018-03-21T03:54:10.367Z,3.95
2018-03-21T03:54:36.504Z,3.96
2018-03-21T03:55:02.634Z,3.94
2018-03-21T03:55:28.769Z,3.96
2018-03-21T03:55:54.902Z,3.96
2018-03-21T03:56:21.041Z,3.95
2018-03-21T03:56:47.173Z,3.95
2018-03-21T03:57:13.305Z,3.96
2018-03-21T03:57:39.445Z,4.01
2018-03-21T03:58:05.600Z,3.96
2018-03-21T03:58:31.739Z,3.95
2018-03-21T03:58:57.877Z,3.94
2018-03-21T03:59:24.012Z,3.87
2018-03-21T03:59:50.141Z,3.88
2018-03-21T04:00:16.275Z,3.86
2018-03-21T04:00:42.411Z,3.88
2018-03-21T04:01:08.544Z,3.84
2018-03-21T04:01:34.682Z,3.84
2018-03-21T04:02:00.813Z,3.87
2018-03-21T04:02:26.949Z,3.87
2018-03-21T04:02:53.078Z,3.87
2018-03-21T04:03:19.257Z,3.88
2018-03-21T04:03:45.410Z,3.78
2018-03-21T04:04:11.525Z,3.78
2018-03-21T04:04:37.663Z,3.86
2018-03-21T04:05:03.795Z,3.83
2018-03-21T04:05:29.926Z,3.73
2018-03-21T04:05:56.063Z,3.86
2018-03-21T04:06:22.202Z,3.77
2018-03-21T04:06:48.334Z,3.87
2018-03-21T04:07:14.484Z,3.76
2018-03-21T04:07:40.614Z,3.74
2018-03-21T04:08:06.744Z,3.77
2018-03-21T04:08:32.882Z,3.77
2018-03-21T04:08:59.016Z,3.83
2018-03-21T04:09:25.152Z,3.78
2018-03-21T04:09:51.280Z,3.83
2018-03-21T04:10:17.465Z,3.81
2018-03-21T04:10:43.598Z,3.76
2018-03-21T04:11:09.739Z,3.66
2018-03-21T04:11:35.869Z,3.74
2018-03-21T04:12:02.046Z,3.65
2018-03-21T04:12:28.171Z,3.7
2018-03-21T04:12:54.307Z,3.78
2018-03-21T04:13:20.446Z,3.68
2018-03-21T04:13:46.582Z,3.78
2018-03-21T04:14:12.717Z,3.66
2018-03-21T04:14:38.874Z,3.8
2018-03-21T04:15:05.005Z,3.59
2018-03-21T04:15:31.140Z,3.76
2018-03-21T04:15:57.280Z,3.8
2018-03-21T04:16:23.443Z,3.76
2018-03-21T04:16:49.572Z,3.66
2018-03-21T04:17:15.711Z,3.74
2018-03-21T04:17:41.853Z,3.63
2018-03-21T04:18:07.985Z,3.76
2018-03-21T04:18:34.125Z,3.65
2018-03-21T04:19:00.247Z,3.65
2018-03-21T04:19:26.384Z,3.63
2018-03-21T04:19:52.519Z,3.62
2018-03-21T04:20:18.666Z,3.65
2018-03-21T04:20:44.800Z,3.69
2018-03-21T04:21:10.957Z,3.68
2018-03-21T04:21:37.093Z,3.69
2018-03-21T04:22:03.224Z,3.6
2018-03-21T04:22:29.357Z,3.63
2018-03-21T04:22:55.486Z,3.62
2018-03-21T04:23:21.642Z,3.66
2018-03-21T04:23:47.774Z,3.66
2018-03-21T04:24:13.908Z,3.65
2018-03-21T04:24:40.040Z,3.73
2018-03-21T04:25:06.174Z,3.63
2018-03-21T04:25:32.303Z,3.65
2018-03-21T04:25:58.449Z,3.66
2018-03-21T04:26:24.585Z,3.69
2018-03-21T04:26:50.725Z,3.7
2018-03-21T04:27:16.880Z,3.63
2018-03-21T04:27:43.036Z,3.63
2018-03-21T04:28:09.173Z,3.62
2018-03-21T04:28:35.301Z,3.66
2018-03-21T04:29:01.438Z,3.77
2018-03-21T04:29:27.597Z,3.69
2018-03-21T04:29:53.732Z,3.62
2018-03-21T04:30:19.865Z,3.69
2018-03-21T04:30:46.004Z,3.59
2018-03-21T04:31:12.140Z,3.66
2018-03-21T04:31:38.270Z,3.63
2018-03-21T04:32:04.406Z,3.66
2018-03-21T04:32:30.541Z,3.66
2018-03-21T04:32:56.682Z,3.69
2018-03-21T04:33:22.816Z,3.62
2018-03-21T04:33:48.951Z,3.62
2018-03-21T04:34:15.084Z,3.73
2018-03-21T04:34:41.219Z,3.62
2018-03-21T04:35:07.372Z,3.66
2018-03-21T04:35:33.511Z,3.65
2018-03-21T04:35:59.666Z,3.68
2018-03-21T04:36:25.829Z,3.68
2018-03-21T04:36:51.966Z,3.73
2018-03-21T04:37:18.103Z,3.66
2018-03-21T04:37:44.237Z,3.6
2018-03-21T04:38:10.374Z,3.66
2018-03-21T04:38:36.511Z,3.68
2018-03-21T04:39:02.648Z,3.68
2018-03-21T04:39:28.779Z,3.63
2018-03-21T04:39:54.916Z,3.65
2018-03-21T04:40:21.051Z,3.62
2018-03-21T04:40:47.181Z,3.51
2018-03-21T04:41:13.349Z,3.51
2018-03-21T04:41:39.479Z,3.56
2018-03-21T04:42:05.618Z,3.55
2018-03-21T04:42:31.746Z,3.58
2018-03-21T04:42:57.888Z,3.51
2018-03-21T04:43:24.021Z,3.51
2018-03-21T04:43:50.150Z,3.65
2018-03-21T04:44:16.286Z,3.53
2018-03-21T04:44:42.442Z,3.55
2018-03-21T04:45:08.580Z,3.58
2018-03-21T04:45:34.713Z,3.56
2018-03-21T04:46:00.849Z,3.51
2018-03-21T04:46:27.004Z,3.44
2018-03-21T04:46:53.151Z,3.44
2018-03-21T04:47:19.292Z,3.42
2018-03-21T04:47:45.418Z,3.41
2018-03-21T04:48:11.550Z,3.5
2018-03-21T04:48:37.686Z,3.42
2018-03-21T04:49:03.850Z,3.45
2018-03-21T04:49:30.009Z,3.44
2018-03-21T04:49:56.134Z,3.37
2018-03-21T04:50:22.277Z,3.44
2018-03-21T04:50:48.454Z,3.47
2018-03-21T04:51:14.595Z,3.41
2018-03-21T04:51:40.790Z,3.45
2018-03-21T04:52:06.866Z,3.42
2018-03-21T04:52:33.002Z,3.4
2018-03-21T04:52:59.140Z,3.4
2018-03-21T04:53:25.275Z,3.48
2018-03-21T04:53:51.401Z,3.37
2018-03-21T04:54:17.534Z,3.47
2018-03-21T04:54:43.670Z,3.4
2018-03-21T04:55:09.807Z,3.31
2018-03-21T04:55:35.943Z,3.41
2018-03-21T04:56:02.100Z,3.37
2018-03-21T04:56:28.232Z,3.34
2018-03-21T04:56:54.361Z,3.36
2018-03-21T04:57:20.497Z,3.32
2018-03-21T04:57:46.640Z,3.34
2018-03-21T04:58:12.776Z,3.31
2018-03-21T04:58:38.905Z,3.25
2018-03-21T04:59:05.067Z,3.25
2018-03-21T04:59:31.230Z,3.25
2018-03-21T04:59:57.366Z,3.18
2018-03-21T05:00:23.508Z,3.21
2018-03-21T05:00:49.641Z,3.23
2018-03-21T05:01:15.774Z,3.32
2018-03-21T05:01:41.914Z,3.26
2018-03-21T05:02:08.055Z,3.22
2018-03-21T05:02:34.191Z,3.22
2018-03-21T05:03:00.332Z,3.21
2018-03-21T05:03:26.456Z,3.22
2018-03-21T05:03:52.587Z,3.19
2018-03-21T05:04:18.722Z,3.21
2018-03-21T05:04:44.865Z,3.22
2018-03-21T05:05:10.997Z,3.18
2018-03-21T05:05:37.136Z,3.21
2018-03-21T05:06:03.293Z,3.16
2018-03-21T05:06:29.422Z,3.01
2018-03-21T05:06:55.559Z,3.13
2018-03-21T05:07:21.695Z,3.07
2018-03-21T05:07:47.830Z,3.1
2018-03-21T05:08:13.960Z,3.14
2018-03-21T05:08:40.118Z,3.14
2018-03-21T05:09:06.254Z,3.07
2018-03-21T05:09:32.389Z,3.05
2018-03-21T05:09:58.520Z,3.01
2018-03-21T05:10:24.658Z,3.01
2018-03-21T05:10:50.794Z,2.98
2018-03-21T05:11:16.974Z,3.01
2018-03-21T05:11:43.107Z,3.03
2018-03-21T05:12:09.243Z,2.85
2018-03-21T05:12:35.407Z,3.04
2018-03-21T05:13:01.566Z,2.85
2018-03-21T05:13:27.698Z,2.82
2018-03-21T05:13:53.835Z,2.97
2018-03-21T05:14:19.963Z,2.93
2018-03-21T05:14:46.105Z,2.9
2018-03-21T05:15:12.236Z,2.89
2018-03-21T05:15:38.375Z,2.98
2018-03-21T05:16:04.506Z,2.93
2018-03-21T05:16:30.647Z,2.93
2018-03-21T05:16:56.801Z,2.85
2018-03-21T05:17:22.947Z,2.9
2018-03-21T05:17:49.085Z,2.93
2018-03-21T05:18:15.223Z,2.97
2018-03-21T05:18:41.366Z,2.97
2018-03-21T05:19:07.496Z,2.93
2018-03-21T05:19:33.625Z,2.92
2018-03-21T05:19:59.786Z,2.87
2018-03-21T05:20:25.925Z,2.92
2018-03-21T05:20:52.055Z,2.87
2018-03-21T05:21:18.187Z,2.85
2018-03-21T05:21:44.321Z,2.87
2018-03-21T05:22:10.476Z,2.89
2018-03-21T05:22:36.608Z,2.93
2018-03-21T05:23:02.770Z,2.95
2018-03-21T05:23:28.908Z,2.87
2018-03-21T05:23:55.041Z,2.82
2018-03-21T05:24:21.201Z,2.85
2018-03-21T05:24:47.326Z,2.9
2018-03-21T05:25:13.450Z,2.85
2018-03-21T05:25:39.586Z,2.8
2018-03-21T05:26:05.722Z,2.86
2018-03-21T05:26:31.856Z,2.87
2018-03-21T05:26:57.989Z,2.89
2018-03-21T05:27:24.124Z,2.77
2018-03-21T05:27:50.265Z,2.74
2018-03-21T05:28:16.400Z,2.72
2018-03-21T05:28:42.534Z,2.68
2018-03-21T05:29:08.666Z,2.69
2018-03-21T05:29:34.800Z,2.68
2018-03-21T05:30:00.935Z,2.69
2018-03-21T05:30:27.067Z,2.68
2018-03-21T05:30:53.201Z,2.62
2018-03-21T05:31:19.387Z,2.62
2018-03-21T05:31:45.514Z,2.68
2018-03-21T05:32:11.655Z,2.67
2018-03-21T05:32:37.792Z,2.65
2018-03-21T05:33:03.926Z,2.62
2018-03-21T05:33:30.064Z,2.72
2018-03-21T05:33:56.225Z,2.71
2018-03-21T05:34:22.451Z,2.74
2018-03-21T05:34:48.546Z,2.72
2018-03-21T05:35:14.671Z,2.74
2018-03-21T05:35:40.809Z,2.75
2018-03-21T05:36:06.953Z,2.75
2018-03-21T05:36:33.097Z,2.75
2018-03-21T05:36:59.257Z,2.71
2018-03-21T05:37:25.395Z,2.72
2018-03-21T05:37:51.526Z,2.69
2018-03-21T05:38:17.660Z,2.75
2018-03-21T05:38:43.803Z,2.77
2018-03-21T05:39:09.945Z,2.68
2018-03-21T05:39:36.080Z,2.68
2018-03-21T05:40:02.211Z,2.75
2018-03-21T05:40:28.350Z,2.75
2018-03-21T05:40:54.506Z,2.75
2018-03-21T05:41:20.674Z,2.74
2018-03-21T05:41:46.768Z,2.74
2018-03-21T05:42:12.897Z,2.77
2018-03-21T05:42:39.082Z,2.71
2018-03-21T05:43:05.214Z,2.75
2018-03-21T05:43:31.347Z,2.82
2018-03-21T05:43:57.504Z,2.79
2018-03-21T05:44:23.647Z,2.83
2018-03-21T05:44:49.785Z,2.74
2018-03-21T05:45:15.911Z,2.82
2018-03-21T05:45:42.047Z,2.77
2018-03-21T05:46:08.184Z,2.71
2018-03-21T05:46:34.332Z,2.71
2018-03-21T05:47:00.469Z,2.75
2018-03-21T05:47:26.627Z,2.75
2018-03-21T05:47:52.796Z,2.72
2018-03-21T05:48:18.897Z,2.75
2018-03-21T05:48:45.032Z,2.79
2018-03-21T05:49:11.189Z,2.77
2018-03-21T05:49:37.331Z,2.77